Time;durP1;ratioP1;P1;durP2;ratioP2;P2;SDS_P1;SDS_P2;PMS_P1;PMS_P2;Temp;Humidity;BMP_temperature;BMP_pressure;BME280_temperature;BME280_humidity;BME280_pressure;Samples;Min_cycle;Max_cycle;Signal;HPM_P1;HPM_P2
2023/09/01 00:01:49;;;;;;;1.50;1.20;;;20.70;92.80;;;;;;5055309;28;20187;-83
2023/09/01 00:04:14;;;;;;;1.80;1.10;;;20.80;92.80;;;;;;5056123;28;20187;-83
2023/09/01 00:06:40;;;;;;;1.70;1.40;;;20.70;92.80;;;;;;5038386;28;20180;-83
2023/09/01 00:09:06;;;;;;;3.10;1.43;;;20.70;92.80;;;;;;5037928;28;20172;-83
2023/09/01 00:11:31;;;;;;;1.50;1.30;;;20.70;92.80;;;;;;5038852;28;20197;-83
2023/09/01 00:13:57;;;;;;;1.50;1.30;;;20.70;92.90;;;;;;5038537;28;20413;-83
2023/09/01 00:16:23;;;;;;;1.30;1.20;;;20.70;92.90;;;;;;5037978;28;20216;-83
2023/09/01 00:18:49;;;;;;;1.67;1.33;;;20.70;92.90;;;;;;5037257;28;20451;-83
2023/09/01 00:21:16;;;;;;;1.70;1.33;;;20.70;93.00;;;;;;5054142;28;20270;-83
2023/09/01 00:23:42;;;;;;;1.50;1.30;;;20.60;93.00;;;;;;5038085;28;20176;-83
2023/09/01 00:26:07;;;;;;;1.63;1.43;;;20.70;93.10;;;;;;5037901;28;20186;-83
2023/09/01 00:28:33;;;;;;;2.83;1.80;;;20.70;93.10;;;;;;5054977;28;20476;-83
2023/09/01 00:31:00;;;;;;;1.77;1.30;;;20.70;93.10;;;;;;5055458;28;20253;-83
2023/09/01 00:33:30;;;;;;;3.83;1.40;;;20.70;93.40;;;;;;5039043;28;20424;-83
2023/09/01 00:35:57;;;;;;;1.43;1.30;;;20.70;93.10;;;;;;5038506;28;20491;-83
2023/09/01 00:38:26;;;;;;;1.67;1.40;;;20.70;93.10;;;;;;5038148;28;20208;-83
2023/09/01 00:40:53;;;;;;;1.33;1.20;;;20.70;93.10;;;;;;5039124;28;20176;-83
2023/09/01 00:43:18;;;;;;;1.37;1.23;;;20.60;93.10;;;;;;5039872;28;20233;-83
2023/09/01 00:45:44;;;;;;;1.90;1.30;;;20.60;93.10;;;;;;5039015;28;20207;-83
2023/09/01 00:48:13;;;;;;;1.90;1.30;;;20.60;93.10;;;;;;5056127;28;20176;-83
2023/09/01 00:50:40;;;;;;;1.77;1.33;;;20.60;93.20;;;;;;5038955;28;20546;-83
2023/09/01 00:53:06;;;;;;;1.63;1.53;;;20.60;93.10;;;;;;5039274;28;20283;-83
2023/09/01 00:55:33;;;;;;;2.17;1.33;;;20.60;93.20;;;;;;5037819;28;20346;-83
2023/09/01 00:58:00;;;;;;;1.13;1.10;;;20.60;93.20;;;;;;5038446;28;20211;-83
2023/09/01 01:00:27;;;;;;;1.73;1.33;;;20.60;93.20;;;;;;5038975;28;20180;-83
2023/09/01 01:02:54;;;;;;;1.20;1.10;;;20.60;93.20;;;;;;5055820;28;20263;-83
2023/09/01 01:05:25;;;;;;;2.10;1.40;;;20.60;93.30;;;;;;5038494;28;20176;-83
2023/09/01 01:08:15;;;;;;;1.23;1.13;;;20.60;93.30;;;;;;5037959;28;20442;-83
2023/09/01 01:10:56;;;;;;;1.90;1.37;;;20.60;93.30;;;;;;5055183;28;20184;-83
2023/09/01 01:13:24;;;;;;;2.43;1.20;;;20.60;93.30;;;;;;5036388;28;20180;-83
2023/09/01 01:15:55;;;;;;;1.47;1.27;;;20.50;93.40;;;;;;5038020;28;20209;-83
2023/09/01 01:18:24;;;;;;;1.33;1.10;;;20.50;93.30;;;;;;5036448;28;20275;-83
2023/09/01 01:20:55;;;;;;;1.33;1.23;;;20.50;93.40;;;;;;5037353;28;20329;-83
2023/09/01 01:23:22;;;;;;;1.80;1.33;;;20.50;93.40;;;;;;5037416;28;20176;-83
2023/09/01 01:25:52;;;;;;;1.40;1.30;;;20.50;93.40;;;;;;5054916;28;20178;-83
2023/09/01 01:28:19;;;;;;;3.07;1.60;;;20.50;93.40;;;;;;5026707;28;20172;-83
2023/09/01 01:30:47;;;;;;;1.93;1.60;;;20.50;93.40;;;;;;5054806;28;20182;-83
2023/09/01 01:33:31;;;;;;;2.27;1.40;;;20.50;93.40;;;;;;5054045;28;20165;-83
2023/09/01 01:36:06;;;;;;;1.93;1.70;;;20.50;93.50;;;;;;5037801;28;22135;-83
2023/09/01 01:38:36;;;;;;;1.80;1.40;;;20.50;93.40;;;;;;5037575;28;20182;-83
2023/09/01 01:41:14;;;;;;;3.17;1.30;;;20.50;93.50;;;;;;5054756;28;20627;-83
2023/09/01 01:43:43;;;;;;;2.73;1.27;;;20.50;93.50;;;;;;5036408;28;20562;-83
2023/09/01 01:46:08;;;;;;;2.10;1.60;;;20.50;93.50;;;;;;5037140;28;20455;-83
2023/09/01 01:48:37;;;;;;;1.33;1.23;;;20.50;93.50;;;;;;5036669;28;20566;-83
2023/09/01 01:51:05;;;;;;;1.70;1.30;;;20.50;93.50;;;;;;5053206;28;20179;-83
2023/09/01 01:53:34;;;;;;;3.17;1.23;;;20.50;93.50;;;;;;5036041;28;20172;-83
2023/09/01 01:55:59;;;;;;;3.40;1.43;;;20.40;93.50;;;;;;5037401;28;20232;-83
2023/09/01 01:58:26;;;;;;;1.20;1.10;;;20.40;93.50;;;;;;5054410;28;20207;-83
2023/09/01 02:00:53;;;;;;;1.47;1.30;;;20.40;93.50;;;;;;5036322;28;20298;-83
2023/09/01 02:03:18;;;;;;;1.40;1.30;;;20.40;93.60;;;;;;5036259;28;20539;-83
2023/09/01 02:05:44;;;;;;;1.97;1.40;;;20.40;93.50;;;;;;5037522;28;20582;-83
2023/09/01 02:08:09;;;;;;;2.13;1.20;;;20.40;93.50;;;;;;5036874;28;20501;-83
2023/09/01 02:10:35;;;;;;;1.30;1.20;;;20.40;93.60;;;;;;5036114;28;20636;-83
2023/09/01 02:13:01;;;;;;;1.53;1.30;;;20.40;93.70;;;;;;5036809;28;20173;-83
2023/09/01 02:15:30;;;;;;;3.17;1.40;;;20.40;93.70;;;;;;5037549;28;20181;-83
2023/09/01 02:17:57;;;;;;;1.40;1.30;;;20.40;93.70;;;;;;5036510;28;20200;-83
2023/09/01 02:20:24;;;;;;;1.40;1.27;;;20.40;93.60;;;;;;5037551;28;20241;-83
2023/09/01 02:22:50;;;;;;;1.30;1.20;;;20.40;93.70;;;;;;5038238;28;20175;-83
2023/09/01 02:25:17;;;;;;;1.07;1.00;;;20.40;93.70;;;;;;5038239;28;20172;-83
2023/09/01 02:27:43;;;;;;;1.30;1.20;;;20.40;93.70;;;;;;5036680;28;20204;-83
2023/09/01 02:30:11;;;;;;;2.17;1.50;;;20.40;93.70;;;;;;5054486;28;20551;-83
2023/09/01 02:32:37;;;;;;;2.37;1.50;;;20.30;93.80;;;;;;5036948;28;20180;-83
2023/09/01 02:35:06;;;;;;;1.50;1.30;;;20.40;93.80;;;;;;5051678;28;20176;-83
2023/09/01 02:37:36;;;;;;;2.30;1.20;;;20.40;93.80;;;;;;5037490;28;20284;-83
2023/09/01 02:40:10;;;;;;;1.97;1.30;;;20.30;93.80;;;;;;5054017;28;20176;-83
2023/09/01 02:42:39;;;;;;;1.20;1.10;;;20.30;93.80;;;;;;5038329;28;20529;-83
2023/09/01 02:45:07;;;;;;;2.40;1.30;;;20.40;93.80;;;;;;5036759;28;20483;-83
2023/09/01 02:47:33;;;;;;;1.83;1.40;;;20.30;93.80;;;;;;5037044;28;20290;-83
2023/09/01 02:49:59;;;;;;;1.30;1.20;;;20.30;93.90;;;;;;5036468;28;20635;-83
2023/09/01 02:52:25;;;;;;;2.50;1.30;;;20.30;93.90;;;;;;5035836;28;20196;-83
2023/09/01 02:54:51;;;;;;;2.93;1.53;;;20.30;93.90;;;;;;5036994;28;20234;-83
2023/09/01 02:57:16;;;;;;;1.30;1.20;;;20.30;93.90;;;;;;5036787;28;20555;-83
2023/09/01 02:59:42;;;;;;;1.53;1.23;;;20.30;94.00;;;;;;5037339;28;20222;-83
2023/09/01 03:02:08;;;;;;;1.60;1.40;;;20.20;94.00;;;;;;5036995;28;20254;-83
2023/09/01 03:04:34;;;;;;;1.40;1.20;;;20.20;94.00;;;;;;5036275;28;20473;-83
2023/09/01 03:06:59;;;;;;;2.00;1.50;;;20.30;94.00;;;;;;5037282;28;20173;-83
2023/09/01 03:09:25;;;;;;;2.23;1.17;;;20.20;94.10;;;;;;5036839;28;20504;-83
2023/09/01 03:11:51;;;;;;;1.37;1.23;;;20.20;94.10;;;;;;5054101;28;20176;-83
2023/09/01 03:14:16;;;;;;;1.50;1.27;;;20.20;94.10;;;;;;5036832;28;20535;-83
2023/09/01 03:16:43;;;;;;;3.57;1.20;;;20.20;94.10;;;;;;5036186;28;20207;-83
2023/09/01 03:19:09;;;;;;;2.33;1.20;;;20.20;94.10;;;;;;5035739;28;20176;-83
2023/09/01 03:21:35;;;;;;;1.63;1.30;;;20.20;94.10;;;;;;5034675;28;20180;-83
2023/09/01 03:24:02;;;;;;;1.80;1.40;;;20.20;94.20;;;;;;5034473;28;20475;-83
2023/09/01 03:26:31;;;;;;;1.50;1.20;;;20.20;94.20;;;;;;5033918;28;20327;-83
2023/09/01 03:28:57;;;;;;;1.93;1.57;;;20.20;94.20;;;;;;5034017;28;20203;-83
2023/09/01 03:31:22;;;;;;;2.73;1.40;;;20.20;94.10;;;;;;5033474;28;20172;-83
2023/09/01 03:33:48;;;;;;;2.43;1.47;;;20.20;94.20;;;;;;5052077;28;20546;-83
2023/09/01 03:36:14;;;;;;;1.53;1.23;;;20.20;94.20;;;;;;5036251;28;20192;-84
2023/09/01 03:38:40;;;;;;;1.47;1.33;;;20.20;94.20;;;;;;5071075;28;20172;-84
2023/09/01 03:41:06;;;;;;;1.20;1.10;;;20.20;94.20;;;;;;5037925;28;20172;-84
2023/09/01 03:43:33;;;;;;;2.23;1.47;;;20.20;94.10;;;;;;5036268;28;20593;-83
2023/09/01 03:45:59;;;;;;;1.47;1.30;;;20.20;94.00;;;;;;5055378;28;20200;-84
2023/09/01 03:48:26;;;;;;;2.27;1.40;;;20.20;94.10;;;;;;5039440;28;20211;-83
2023/09/01 03:51:09;;;;;;;1.47;1.30;;;20.20;94.10;;;;;;5038882;28;20179;-83
2023/09/01 03:53:35;;;;;;;1.50;1.27;;;20.20;94.10;;;;;;5039135;28;20188;-84
2023/09/01 03:56:06;;;;;;;1.97;1.30;;;20.20;94.10;;;;;;5038554;28;20192;-84
2023/09/01 03:58:32;;;;;;;1.70;1.47;;;20.10;94.00;;;;;;5038621;28;20176;-84
2023/09/01 04:00:57;;;;;;;1.67;1.40;;;20.20;94.00;;;;;;5056289;28;20172;-83
2023/09/01 04:03:23;;;;;;;2.47;1.50;;;20.10;94.00;;;;;;5039612;28;20199;-83
2023/09/01 04:05:49;;;;;;;1.50;1.40;;;20.20;94.00;;;;;;5038594;28;20175;-84
2023/09/01 04:08:15;;;;;;;2.03;1.40;;;20.20;94.00;;;;;;5038458;28;20257;-83
2023/09/01 04:10:40;;;;;;;2.30;1.50;;;20.20;94.00;;;;;;5039714;28;20280;-84
2023/09/01 04:13:06;;;;;;;2.20;1.20;;;20.10;94.00;;;;;;5036861;28;20255;-83
2023/09/01 04:15:32;;;;;;;1.90;1.60;;;20.10;94.00;;;;;;5037311;28;20179;-83
2023/09/01 04:17:58;;;;;;;3.00;1.30;;;20.10;93.90;;;;;;5052382;28;20196;-84
2023/09/01 04:20:23;;;;;;;3.63;1.60;;;20.10;94.00;;;;;;5052553;28;20243;-84
2023/09/01 04:22:49;;;;;;;1.67;1.23;;;20.10;94.00;;;;;;5036441;28;20492;-84
2023/09/01 04:25:15;;;;;;;2.13;1.70;;;20.10;93.90;;;;;;5053167;28;20455;-84
2023/09/01 04:27:40;;;;;;;2.53;1.27;;;20.10;93.90;;;;;;5033524;28;20241;-84
2023/09/01 04:30:06;;;;;;;2.10;1.33;;;20.10;93.90;;;;;;5034759;28;20178;-84
2023/09/01 04:32:32;;;;;;;2.20;1.50;;;20.10;93.90;;;;;;5033608;28;20169;-83
2023/09/01 04:34:57;;;;;;;2.07;1.17;;;20.10;93.90;;;;;;5033623;28;20180;-83
2023/09/01 04:37:23;;;;;;;3.27;1.30;;;20.10;93.90;;;;;;5032921;28;20240;-84
2023/09/01 04:39:49;;;;;;;2.83;1.80;;;20.10;93.90;;;;;;5033194;28;20454;-83
2023/09/01 04:42:14;;;;;;;2.87;1.40;;;20.10;93.90;;;;;;5033688;28;20685;-84
2023/09/01 04:44:40;;;;;;;2.40;1.43;;;20.10;93.90;;;;;;5051512;28;20321;-84
2023/09/01 04:47:06;;;;;;;2.97;1.67;;;20.10;93.90;;;;;;5034085;28;20238;-84
2023/09/01 04:49:31;;;;;;;5.70;1.97;;;20.10;93.90;;;;;;5030564;28;20169;-84
2023/09/01 04:51:57;;;;;;;4.50;1.73;;;20.10;93.90;;;;;;5033440;28;20281;-84
2023/09/01 04:54:23;;;;;;;4.73;1.90;;;20.10;94.00;;;;;;5049247;28;20352;-84
2023/09/01 04:56:49;;;;;;;3.33;1.80;;;20.10;94.00;;;;;;5049897;28;20200;-84
2023/09/01 04:59:14;;;;;;;4.07;1.70;;;20.10;94.00;;;;;;5032104;28;20228;-83
2023/09/01 05:01:40;;;;;;;2.80;1.97;;;20.10;94.30;;;;;;5015025;28;20180;-85
2023/09/01 05:04:07;;;;;;;3.43;1.80;;;20.10;94.10;;;;;;5026593;28;20172;-85
2023/09/01 05:06:33;;;;;;;2.73;1.70;;;20.10;94.00;;;;;;5033943;28;20223;-85
2023/09/01 05:08:59;;;;;;;5.33;1.80;;;20.10;94.00;;;;;;5034534;28;20269;-84
2023/09/01 05:11:25;;;;;;;2.90;1.70;;;20.10;94.30;;;;;;5034959;28;20191;-85
2023/09/01 05:13:50;;;;;;;4.43;2.00;;;20.10;94.00;;;;;;5049870;28;20561;-85
2023/09/01 05:16:16;;;;;;;4.23;1.90;;;20.10;94.00;;;;;;5033363;28;20468;-84
2023/09/01 05:18:42;;;;;;;1.80;1.70;;;20.10;93.90;;;;;;5033173;28;20179;-85
2023/09/01 05:21:08;;;;;;;4.80;2.30;;;20.10;93.90;;;;;;5033956;28;20178;-84
2023/09/01 05:23:34;;;;;;;3.30;1.80;;;20.10;93.90;;;;;;5030419;28;20172;-85
2023/09/01 05:26:00;;;;;;;4.27;2.00;;;20.20;93.90;;;;;;5031824;28;20457;-85
2023/09/01 05:28:26;;;;;;;3.57;1.77;;;20.20;93.90;;;;;;5030745;28;20173;-84
2023/09/01 05:30:54;;;;;;;3.40;1.70;;;20.20;93.90;;;;;;5033262;28;20455;-85
2023/09/01 05:33:20;;;;;;;3.63;2.00;;;20.20;93.90;;;;;;5031104;28;20267;-84
2023/09/01 05:35:46;;;;;;;3.60;1.90;;;20.20;94.00;;;;;;5045759;28;20267;-84
2023/09/01 05:38:11;;;;;;;3.87;2.00;;;20.20;93.90;;;;;;5028302;28;20330;-85
2023/09/01 05:40:37;;;;;;;4.63;2.07;;;20.30;93.90;;;;;;5026294;28;20255;-84
2023/09/01 05:43:03;;;;;;;4.13;2.00;;;20.30;93.90;;;;;;5042845;28;20261;-84
2023/09/01 05:45:28;;;;;;;3.20;1.90;;;20.30;93.90;;;;;;5024661;28;20469;-85
2023/09/01 05:47:56;;;;;;;3.20;1.93;;;20.30;93.90;;;;;;5027921;28;20168;-85
2023/09/01 05:50:22;;;;;;;3.50;2.23;;;20.30;93.90;;;;;;5043605;28;20241;-84
2023/09/01 05:52:47;;;;;;;4.70;2.27;;;20.30;93.90;;;;;;5026217;28;20285;-85
2023/09/01 05:55:13;;;;;;;4.17;1.87;;;20.30;94.00;;;;;;5029268;28;20187;-84
2023/09/01 05:57:40;;;;;;;4.63;2.33;;;20.30;93.90;;;;;;5028472;28;20365;-84
2023/09/01 06:00:07;;;;;;;5.10;2.10;;;20.30;93.90;;;;;;5029018;28;20241;-84
2023/09/01 06:02:33;;;;;;;4.73;2.27;;;20.30;93.90;;;;;;5030017;28;20415;-84
2023/09/01 06:04:58;;;;;;;3.77;2.20;;;20.30;93.90;;;;;;5025204;28;20457;-84
2023/09/01 06:07:24;;;;;;;3.50;1.90;;;20.30;93.90;;;;;;5026332;28;20172;-84
2023/09/01 06:09:51;;;;;;;3.63;1.90;;;20.30;93.90;;;;;;5026468;28;20219;-84
2023/09/01 06:12:16;;;;;;;3.37;2.00;;;20.30;93.90;;;;;;5026368;28;20184;-84
2023/09/01 06:14:42;;;;;;;3.63;2.10;;;20.40;93.90;;;;;;5026596;28;20177;-84
2023/09/01 06:17:08;;;;;;;3.27;2.20;;;20.40;93.90;;;;;;5026570;28;20622;-84
2023/09/01 06:19:34;;;;;;;4.07;2.30;;;20.40;93.70;;;;;;5027673;28;20172;-84
2023/09/01 06:22:00;;;;;;;2.93;2.10;;;20.40;93.60;;;;;;5043704;28;20169;-84
2023/09/01 06:24:25;;;;;;;4.00;2.00;;;20.40;93.70;;;;;;5022604;28;20180;-84
2023/09/01 06:26:53;;;;;;;3.70;2.00;;;20.40;93.60;;;;;;5027505;28;20615;-84
2023/09/01 06:29:19;;;;;;;3.20;1.60;;;20.40;93.70;;;;;;5030009;28;20577;-84
2023/09/01 06:31:45;;;;;;;3.17;2.13;;;20.30;93.90;;;;;;5043351;28;20172;-84
2023/09/01 06:34:10;;;;;;;2.93;2.10;;;20.20;94.00;;;;;;5044096;28;20511;-84
2023/09/01 06:36:36;;;;;;;3.97;2.23;;;20.20;94.10;;;;;;5024634;28;20228;-84
2023/09/01 06:39:02;;;;;;;4.40;2.00;;;20.20;94.20;;;;;;5026290;28;20533;-84
2023/09/01 06:41:28;;;;;;;2.90;2.10;;;20.20;94.50;;;;;;5042803;28;20326;-84
2023/09/01 06:43:53;;;;;;;3.33;2.13;;;20.10;94.30;;;;;;5043185;28;20449;-84
2023/09/01 06:46:19;;;;;;;3.33;2.23;;;20.10;94.40;;;;;;5025119;28;20176;-84
2023/09/01 06:48:45;;;;;;;3.40;2.00;;;20.10;94.50;;;;;;5025651;28;20421;-84
2023/09/01 06:51:10;;;;;;;3.23;1.80;;;20.20;94.50;;;;;;5027097;28;20270;-84
2023/09/01 06:53:36;;;;;;;3.93;2.20;;;20.20;94.50;;;;;;5044478;28;20342;-84
2023/09/01 06:56:02;;;;;;;3.57;2.27;;;20.20;94.50;;;;;;5025612;28;20223;-84
2023/09/01 06:58:28;;;;;;;3.77;2.03;;;20.20;94.60;;;;;;5060611;28;20168;-84
2023/09/01 07:00:54;;;;;;;3.67;2.03;;;20.20;94.60;;;;;;5045749;28;20238;-84
2023/09/01 07:03:20;;;;;;;3.77;2.00;;;20.20;94.60;;;;;;5044710;28;20164;-84
2023/09/01 07:05:56;;;;;;;2.70;2.10;;;20.20;94.50;;;;;;5029077;28;20219;-84
2023/09/01 07:08:21;;;;;;;3.43;2.30;;;20.20;94.60;;;;;;5026121;28;20353;-84
2023/09/01 07:10:47;;;;;;;2.73;1.90;;;20.20;94.50;;;;;;5045456;28;20375;-84
2023/09/01 07:13:13;;;;;;;5.47;2.20;;;20.20;94.50;;;;;;5047684;28;20176;-84
2023/09/01 07:15:38;;;;;;;3.37;2.10;;;20.20;94.50;;;;;;5032099;28;20708;-84
2023/09/01 07:18:04;;;;;;;3.60;2.33;;;20.20;94.50;;;;;;5033222;28;20218;-84
2023/09/01 07:20:30;;;;;;;5.40;2.30;;;20.20;94.50;;;;;;5031936;28;20169;-84
2023/09/01 07:22:56;;;;;;;3.00;2.10;;;20.20;94.40;;;;;;5030100;28;20265;-84
2023/09/01 07:25:22;;;;;;;3.27;1.97;;;20.20;94.50;;;;;;5029425;28;20176;-84
2023/09/01 07:27:47;;;;;;;6.00;2.23;;;20.20;94.50;;;;;;5031695;28;20593;-84
2023/09/01 07:30:13;;;;;;;4.23;2.30;;;20.30;94.50;;;;;;5047843;28;20572;-84
2023/09/01 07:32:40;;;;;;;4.37;2.03;;;20.20;94.50;;;;;;5029943;28;20188;-84
2023/09/01 07:35:06;;;;;;;2.70;2.00;;;20.20;94.80;;;;;;5029985;28;20176;-84
2023/09/01 07:37:32;;;;;;;3.00;2.10;;;20.30;94.60;;;;;;5063390;28;20226;-84
2023/09/01 07:39:58;;;;;;;3.47;2.17;;;20.30;94.60;;;;;;5029218;28;20176;-84
2023/09/01 07:42:23;;;;;;;3.13;2.10;;;20.30;94.60;;;;;;5030615;28;20172;-84
2023/09/01 07:44:49;;;;;;;3.20;1.80;;;20.30;94.60;;;;;;5047782;28;20195;-84
2023/09/01 07:47:15;;;;;;;2.77;1.93;;;20.20;94.60;;;;;;5029368;28;20533;-84
2023/09/01 07:49:40;;;;;;;2.50;2.10;;;20.30;94.60;;;;;;5046243;28;20265;-84
2023/09/01 07:52:06;;;;;;;3.33;2.00;;;20.30;94.60;;;;;;5046839;28;20180;-84
2023/09/01 07:54:32;;;;;;;3.57;2.10;;;20.30;94.50;;;;;;5045988;28;20268;-84
2023/09/01 07:56:58;;;;;;;3.20;2.17;;;20.30;94.50;;;;;;5044913;28;20521;-83
2023/09/01 07:59:23;;;;;;;4.13;2.07;;;20.30;94.50;;;;;;5026113;28;20697;-84
2023/09/01 08:01:52;;;;;;;4.13;1.97;;;20.30;94.50;;;;;;5026805;28;20562;-83
2023/09/01 08:04:17;;;;;;;4.53;2.30;;;20.30;94.50;;;;;;5027982;28;20215;-83
2023/09/01 08:06:43;;;;;;;2.80;1.80;;;20.30;94.60;;;;;;5045824;28;20463;-83
2023/09/01 08:09:09;;;;;;;3.63;1.97;;;20.30;94.60;;;;;;5011667;28;20175;-83
2023/09/01 08:11:35;;;;;;;2.87;2.10;;;20.30;94.60;;;;;;5029072;28;20305;-83
2023/09/01 08:14:00;;;;;;;2.70;1.90;;;20.30;94.60;;;;;;5030554;28;20172;-83
2023/09/01 08:16:26;;;;;;;5.33;2.30;;;20.40;94.90;;;;;;5029108;28;20277;-83
2023/09/01 08:18:52;;;;;;;2.50;1.80;;;20.40;94.70;;;;;;5030413;28;20172;-83
2023/09/01 08:21:17;;;;;;;1.93;1.67;;;20.40;94.60;;;;;;5029864;28;20173;-83
2023/09/01 08:23:43;;;;;;;3.00;2.13;;;20.40;94.60;;;;;;5030279;28;20207;-83
2023/09/01 08:26:09;;;;;;;3.03;2.20;;;20.40;94.60;;;;;;5031157;28;20456;-83
2023/09/01 08:28:35;;;;;;;2.27;1.90;;;20.50;94.60;;;;;;5046237;28;20172;-83
2023/09/01 08:31:04;;;;;;;2.27;1.80;;;20.50;94.50;;;;;;5046874;28;20169;-83
2023/09/01 08:33:30;;;;;;;2.90;1.80;;;20.50;94.50;;;;;;5045203;28;20258;-83
2023/09/01 08:35:56;;;;;;;3.17;2.00;;;20.50;94.70;;;;;;5027252;28;20268;-83
2023/09/01 08:38:21;;;;;;;3.03;1.80;;;20.50;94.40;;;;;;5046391;28;20823;-83
2023/09/01 08:40:50;;;;;;;2.47;1.93;;;20.50;94.30;;;;;;5029177;28;20166;-83
2023/09/01 08:43:16;;;;;;;2.33;1.63;;;20.50;94.40;;;;;;5029223;28;20570;-83
2023/09/01 08:45:43;;;;;;;1.97;1.77;;;20.50;94.30;;;;;;5028993;28;20439;-83
2023/09/01 08:48:09;;;;;;;2.73;1.80;;;20.50;94.30;;;;;;5030034;28;20186;-83
2023/09/01 08:50:34;;;;;;;2.27;1.80;;;20.50;94.40;;;;;;5046178;28;20168;-83
2023/09/01 08:53:04;;;;;;;2.43;1.90;;;20.50;94.40;;;;;;5025624;28;20173;-83
2023/09/01 08:55:30;;;;;;;3.13;1.90;;;20.50;94.30;;;;;;5027237;28;20196;-83
2023/09/01 08:57:56;;;;;;;2.20;1.90;;;20.50;94.30;;;;;;5027285;28;20208;-83
2023/09/01 09:00:21;;;;;;;2.57;1.63;;;20.60;94.30;;;;;;5028955;28;20197;-83
2023/09/01 09:02:47;;;;;;;2.53;1.80;;;20.60;94.20;;;;;;5028483;28;20327;-83
2023/09/01 09:05:14;;;;;;;1.77;1.63;;;20.60;94.10;;;;;;5027783;28;20164;-83
2023/09/01 09:07:40;;;;;;;3.23;2.07;;;20.60;94.00;;;;;;5047217;28;20170;-83
2023/09/01 09:10:07;;;;;;;2.37;1.80;;;20.60;94.00;;;;;;5044708;28;20169;-83
2023/09/01 09:12:41;;;;;;;2.17;1.60;;;20.70;94.00;;;;;;5028632;28;20179;-83
2023/09/01 09:15:08;;;;;;;1.90;1.50;;;20.70;93.90;;;;;;5027405;28;20245;-83
2023/09/01 09:17:44;;;;;;;2.23;1.80;;;20.70;93.90;;;;;;5045499;28;20196;-83
2023/09/01 09:20:12;;;;;;;2.70;1.90;;;20.80;93.90;;;;;;5027027;28;20441;-82
2023/09/01 09:22:50;;;;;;;2.60;1.63;;;20.80;93.80;;;;;;5027308;28;20198;-83
2023/09/01 09:25:32;;;;;;;2.17;1.87;;;20.80;93.90;;;;;;5029017;28;20569;-83
2023/09/01 09:28:00;;;;;;;1.77;1.53;;;20.80;94.00;;;;;;5036120;28;20189;-83
2023/09/01 09:30:28;;;;;;;2.07;1.60;;;20.70;94.00;;;;;;5027821;28;20586;-83
2023/09/01 09:33:05;;;;;;;4.27;1.87;;;20.70;94.10;;;;;;5043749;28;20175;-83
2023/09/01 09:35:34;;;;;;;2.10;1.70;;;20.70;94.20;;;;;;5046748;28;20210;-83
2023/09/01 09:38:00;;;;;;;3.50;1.57;;;20.70;94.30;;;;;;5028518;28;20374;-83
2023/09/01 09:40:27;;;;;;;2.33;1.67;;;20.70;94.40;;;;;;5027782;28;20530;-84
2023/09/01 09:42:58;;;;;;;1.80;1.30;;;20.60;94.40;;;;;;5026263;28;20179;-84
2023/09/01 09:45:32;;;;;;;2.17;1.57;;;20.60;94.50;;;;;;5025065;28;20182;-84
2023/09/01 09:48:04;;;;;;;2.50;1.63;;;20.60;94.60;;;;;;5043663;28;20176;-84
2023/09/01 09:50:30;;;;;;;1.97;1.43;;;20.60;94.70;;;;;;5043265;28;20183;-84
2023/09/01 09:53:00;;;;;;;2.80;1.73;;;20.60;94.70;;;;;;5028093;28;20180;-84
2023/09/01 09:55:31;;;;;;;2.00;1.70;;;20.60;94.70;;;;;;5028128;28;20201;-84
2023/09/01 09:58:05;;;;;;;2.90;1.67;;;20.60;94.80;;;;;;5046050;28;20628;-84
2023/09/01 10:00:57;;;;;;;3.13;1.70;;;20.60;94.80;;;;;;5029045;28;20596;-84
2023/09/01 10:03:28;;;;;;;1.90;1.43;;;20.60;94.80;;;;;;5028254;28;20513;-84
2023/09/01 10:05:54;;;;;;;2.10;1.60;;;20.60;94.80;;;;;;5027535;28;20176;-84
2023/09/01 10:08:23;;;;;;;2.43;1.47;;;20.60;94.80;;;;;;5026490;28;20613;-84
2023/09/01 10:10:49;;;;;;;1.97;1.50;;;20.60;94.80;;;;;;5025550;28;20215;-84
2023/09/01 10:13:15;;;;;;;1.70;1.60;;;20.60;94.80;;;;;;5027876;28;20237;-84
2023/09/01 10:15:41;;;;;;;2.20;1.67;;;20.60;94.90;;;;;;5026977;28;20353;-84
2023/09/01 10:18:09;;;;;;;3.97;1.53;;;20.60;94.90;;;;;;5027178;28;20212;-84
2023/09/01 10:20:43;;;;;;;2.67;1.70;;;20.60;94.90;;;;;;5027652;28;20195;-84
2023/09/01 10:23:10;;;;;;;2.67;1.37;;;20.60;94.90;;;;;;5026143;28;20241;-84
2023/09/01 10:25:36;;;;;;;1.40;1.30;;;20.60;95.00;;;;;;5028100;28;20179;-84
2023/09/01 10:28:04;;;;;;;2.53;1.63;;;20.60;95.00;;;;;;5027328;28;20615;-84
2023/09/01 10:30:37;;;;;;;2.30;1.63;;;20.60;95.00;;;;;;5027162;28;20424;-84
2023/09/01 10:33:16;;;;;;;1.83;1.40;;;20.60;95.00;;;;;;5045421;28;20207;-84
2023/09/01 10:35:48;;;;;;;1.50;1.40;;;20.50;95.00;;;;;;5026239;28;20583;-84
2023/09/01 10:38:21;;;;;;;2.17;1.63;;;20.50;95.00;;;;;;5026919;28;20222;-84
2023/09/01 10:40:50;;;;;;;1.77;1.40;;;20.50;95.00;;;;;;5024808;28;20187;-84
2023/09/01 10:43:37;;;;;;;1.97;1.43;;;20.60;95.10;;;;;;5025363;28;20164;-84
2023/09/01 10:46:12;;;;;;;2.77;1.40;;;20.50;95.10;;;;;;5049435;28;20176;-84
2023/09/01 10:49:09;;;;;;;2.10;1.40;;;20.60;95.20;;;;;;5030352;28;20183;-84
2023/09/01 10:51:40;;;;;;;2.10;1.47;;;20.50;95.30;;;;;;5007120;28;20456;-84
2023/09/01 10:54:28;;;;;;;1.40;1.27;;;20.50;95.20;;;;;;5050347;28;20292;-84
2023/09/01 10:57:00;;;;;;;1.77;1.30;;;20.50;95.30;;;;;;5029665;28;20215;-84
2023/09/01 10:59:30;;;;;;;2.03;1.40;;;20.50;95.30;;;;;;5031988;28;20172;-84
2023/09/01 11:01:56;;;;;;;1.77;1.47;;;20.50;95.30;;;;;;5030523;28;20169;-84
2023/09/01 11:04:21;;;;;;;2.17;1.53;;;20.50;95.30;;;;;;5030149;28;20423;-84
2023/09/01 11:06:56;;;;;;;2.40;1.50;;;20.50;95.30;;;;;;5027770;28;20285;-84
2023/09/01 11:09:34;;;;;;;3.50;1.50;;;20.50;95.30;;;;;;5029873;28;20282;-84
2023/09/01 11:12:05;;;;;;;1.30;1.20;;;20.50;95.20;;;;;;5030315;28;20187;-84
2023/09/01 11:14:32;;;;;;;2.10;1.47;;;20.60;95.20;;;;;;5048168;28;20178;-84
2023/09/01 11:17:00;;;;;;;1.87;1.47;;;20.60;95.20;;;;;;5030606;28;20680;-84
2023/09/01 11:19:26;;;;;;;1.47;1.37;;;20.60;95.10;;;;;;5028408;28;20562;-84
2023/09/01 11:21:52;;;;;;;2.47;1.50;;;20.60;95.10;;;;;;5030133;28;20230;-84
2023/09/01 11:24:21;;;;;;;2.03;1.63;;;20.60;95.00;;;;;;5029437;28;20176;-84
2023/09/01 11:26:52;;;;;;;1.47;1.30;;;20.60;95.00;;;;;;5062653;28;20561;-85
2023/09/01 11:29:21;;;;;;;1.60;1.30;;;20.60;94.90;;;;;;5030241;28;20419;-84
2023/09/01 11:31:47;;;;;;;2.03;1.40;;;20.60;94.90;;;;;;5029840;28;20172;-85
2023/09/01 11:34:15;;;;;;;1.40;1.30;;;20.60;94.90;;;;;;5029080;28;20187;-85
2023/09/01 11:36:49;;;;;;;2.47;1.40;;;20.70;94.80;;;;;;5029398;28;20204;-84
2023/09/01 11:39:16;;;;;;;1.60;1.50;;;20.70;94.80;;;;;;5032331;28;20643;-84
2023/09/01 11:41:43;;;;;;;2.60;1.47;;;20.70;94.70;;;;;;5032623;28;20172;-85
2023/09/01 11:44:09;;;;;;;1.40;1.10;;;20.70;94.70;;;;;;5049024;28;20473;-84
2023/09/01 11:46:37;;;;;;;1.53;1.40;;;20.70;94.60;;;;;;5063623;28;20267;-84
2023/09/01 11:49:04;;;;;;;1.60;1.30;;;20.70;94.50;;;;;;5031436;28;20179;-85
2023/09/01 11:51:35;;;;;;;2.00;1.47;;;20.80;94.50;;;;;;5029338;28;20180;-85
2023/09/01 11:54:01;;;;;;;1.83;1.33;;;20.80;94.50;;;;;;5031088;28;20282;-85
2023/09/01 11:56:28;;;;;;;1.47;1.20;;;20.80;94.40;;;;;;5029346;28;20289;-85
2023/09/01 11:58:55;;;;;;;1.60;1.40;;;20.80;94.40;;;;;;5048213;28;20184;-85
2023/09/01 12:01:23;;;;;;;1.40;1.27;;;20.80;94.40;;;;;;5029920;28;20176;-85
2023/09/01 12:03:51;;;;;;;1.70;1.40;;;20.80;94.30;;;;;;5029805;28;20172;-85
2023/09/01 12:06:24;;;;;;;1.53;1.40;;;20.80;94.30;;;;;;5030911;28;20435;-84
2023/09/01 12:08:53;;;;;;;1.60;1.20;;;20.80;94.20;;;;;;5048900;28;20203;-85
2023/09/01 12:11:20;;;;;;;1.60;1.33;;;20.90;94.20;;;;;;5031018;28;20183;-85
2023/09/01 12:13:46;;;;;;;1.50;1.17;;;20.90;94.20;;;;;;5031942;28;20183;-84
2023/09/01 12:16:23;;;;;;;1.37;1.27;;;20.90;94.10;;;;;;5031729;28;20172;-85
2023/09/01 12:18:50;;;;;;;1.50;1.20;;;20.90;94.10;;;;;;5031089;28;20186;-84
2023/09/01 12:21:15;;;;;;;1.87;1.20;;;20.90;94.00;;;;;;5030745;28;20169;-85
2023/09/01 12:23:43;;;;;;;1.23;1.13;;;20.90;94.00;;;;;;5037775;28;20192;-84
2023/09/01 12:26:10;;;;;;;1.43;1.23;;;20.90;94.00;;;;;;5047199;28;20322;-85
2023/09/01 12:28:38;;;;;;;1.20;1.10;;;20.90;94.30;;;;;;5029089;28;20287;-84
2023/09/01 12:31:06;;;;;;;1.40;1.10;;;20.90;94.00;;;;;;5030140;28;20623;-85
2023/09/01 12:33:33;;;;;;;1.70;1.20;;;21.00;94.00;;;;;;5046623;28;20271;-85
2023/09/01 12:35:59;;;;;;;1.47;1.30;;;21.00;94.00;;;;;;5028299;28;20276;-85
2023/09/01 12:38:26;;;;;;;1.20;1.10;;;21.00;93.90;;;;;;5027815;28;20228;-85
2023/09/01 12:40:52;;;;;;;1.60;1.30;;;21.00;93.90;;;;;;5027821;28;20172;-85
2023/09/01 12:43:17;;;;;;;1.07;1.07;;;21.00;93.80;;;;;;5029647;28;20213;-85
2023/09/01 12:45:44;;;;;;;1.50;1.30;;;21.00;93.80;;;;;;5030556;28;20187;-85
2023/09/01 12:48:09;;;;;;;1.50;1.10;;;21.10;93.80;;;;;;5030639;28;20226;-85
2023/09/01 12:50:36;;;;;;;1.43;1.30;;;21.10;93.70;;;;;;5030012;28;20224;-84